sensor_id;sensor_type;location;lat;lon;timestamp;pressure;altitude;pressure_sealevel;temperature;humidity
2711;BME280;20721;47.402;8.550;2022-10-16T00:00:29;96085;;;16.69;65.32
2711;BME280;20721;47.402;8.550;2022-10-16T00:02:29;96089;;;16.67;65.35
2711;BME280;20721;47.402;8.550;2022-10-16T00:03:30;96085;;;16.66;65.39
2711;BME280;20721;47.402;8.550;2022-10-16T00:04:29;96084;;;16.68;65.43
2711;BME280;20721;47.402;8.550;2022-10-16T00:06:30;96081;;;16.69;65.42
2711;BME280;20721;47.402;8.550;2022-10-16T00:07:29;96080;;;16.68;65.44
2711;BME280;20721;47.402;8.550;2022-10-16T00:10:29;96081;;;16.70;65.53
2711;BME280;20721;47.402;8.550;2022-10-16T00:11:31;96082;;;16.72;65.44
2711;BME280;20721;47.402;8.550;2022-10-16T00:12:29;96082;;;16.75;65.47
2711;BME280;20721;47.402;8.550;2022-10-16T00:13:30;96082;;;16.77;65.41
2711;BME280;20721;47.402;8.550;2022-10-16T00:14:29;96078;;;16.79;65.45
2711;BME280;20721;47.402;8.550;2022-10-16T00:15:30;96075;;;16.80;65.52
2711;BME280;20721;47.402;8.550;2022-10-16T00:16:29;96076;;;16.81;65.43
2711;BME280;20721;47.402;8.550;2022-10-16T00:17:29;96081;;;16.82;65.39
2711;BME280;20721;47.402;8.550;2022-10-16T00:18:29;96080;;;16.83;65.39
2711;BME280;20721;47.402;8.550;2022-10-16T00:19:29;96078;;;16.82;65.34
2711;BME280;20721;47.402;8.550;2022-10-16T00:20:33;96081;;;16.83;65.37
2711;BME280;20721;47.402;8.550;2022-10-16T00:22:29;96088;;;16.82;65.27
2711;BME280;20721;47.402;8.550;2022-10-16T00:24:29;96090;;;16.81;65.27
2711;BME280;20721;47.402;8.550;2022-10-16T00:25:32;96090;;;16.80;65.26
2711;BME280;20721;47.402;8.550;2022-10-16T00:28:30;96092;;;16.70;65.31
2711;BME280;20721;47.402;8.550;2022-10-16T00:29:29;96089;;;16.56;65.82
2711;BME280;20721;47.402;8.550;2022-10-16T00:30:30;96091;;;16.53;66.03
2711;BME280;20721;47.402;8.550;2022-10-16T00:31:29;96089;;;16.54;66.11
2711;BME280;20721;47.402;8.550;2022-10-16T00:33:29;96092;;;16.55;66.09
2711;BME280;20721;47.402;8.550;2022-10-16T00:35:30;96090;;;16.56;66.17
2711;BME280;20721;47.402;8.550;2022-10-16T00:36:30;96089;;;16.57;66.15
2711;BME280;20721;47.402;8.550;2022-10-16T00:37:29;96090;;;16.55;66.36
2711;BME280;20721;47.402;8.550;2022-10-16T00:39:29;96093;;;16.57;66.23
2711;BME280;20721;47.402;8.550;2022-10-16T00:40:29;96089;;;16.60;66.17
2711;BME280;20721;47.402;8.550;2022-10-16T00:41:30;96085;;;16.63;66.03
2711;BME280;20721;47.402;8.550;2022-10-16T00:42:29;96089;;;16.65;65.94
2711;BME280;20721;47.402;8.550;2022-10-16T00:43:46;96093;;;16.67;65.95
2711;BME280;20721;47.402;8.550;2022-10-16T00:45:29;96096;;;16.70;65.94
2711;BME280;20721;47.402;8.550;2022-10-16T00:46:45;96095;;;16.72;65.85
2711;BME280;20721;47.402;8.550;2022-10-16T00:47:32;96099;;;16.73;65.77
2711;BME280;20721;47.402;8.550;2022-10-16T00:48:29;96097;;;16.74;65.74
2711;BME280;20721;47.402;8.550;2022-10-16T00:49:29;96101;;;16.75;65.79
2711;BME280;20721;47.402;8.550;2022-10-16T00:50:30;96095;;;16.76;65.79
2711;BME280;20721;47.402;8.550;2022-10-16T00:51:31;96096;;;16.75;65.79
2711;BME280;20721;47.402;8.550;2022-10-16T00:52:29;96096;;;16.64;65.78
2711;BME280;20721;47.402;8.550;2022-10-16T00:53:29;96095;;;16.56;66.30
2711;BME280;20721;47.402;8.550;2022-10-16T00:54:30;96096;;;16.55;66.41
2711;BME280;20721;47.402;8.550;2022-10-16T00:55:30;96099;;;16.58;66.36
2711;BME280;20721;47.402;8.550;2022-10-16T00:56:30;96096;;;16.63;66.26
2711;BME280;20721;47.402;8.550;2022-10-16T00:57:30;96097;;;16.68;66.13
2711;BME280;20721;47.402;8.550;2022-10-16T00:58:30;96101;;;16.73;66.01
2711;BME280;20721;47.402;8.550;2022-10-16T00:59:31;96097;;;16.77;65.94
2711;BME280;20721;47.402;8.550;2022-10-16T01:00:29;96098;;;16.80;65.79
2711;BME280;20721;47.402;8.550;2022-10-16T01:02:29;96101;;;16.79;65.71
2711;BME280;20721;47.402;8.550;2022-10-16T01:03:31;96092;;;16.78;65.69
2711;BME280;20721;47.402;8.550;2022-10-16T01:04:32;96091;;;16.79;65.73
2711;BME280;20721;47.402;8.550;2022-10-16T01:09:34;96106;;;16.75;65.78
2711;BME280;20721;47.402;8.550;2022-10-16T01:10:35;96104;;;16.76;65.80
2711;BME280;20721;47.402;8.550;2022-10-16T01:11:33;96104;;;16.75;65.90
2711;BME280;20721;47.402;8.550;2022-10-16T01:13:32;96101;;;16.76;65.77
2711;BME280;20721;47.402;8.550;2022-10-16T01:15:34;96099;;;16.72;65.93
2711;BME280;20721;47.402;8.550;2022-10-16T01:17:42;96099;;;16.68;66.01
2711;BME280;20721;47.402;8.550;2022-10-16T01:18:31;96098;;;16.67;66.10
2711;BME280;20721;47.402;8.550;2022-10-16T01:21:31;96100;;;16.69;66.14
2711;BME280;20721;47.402;8.550;2022-10-16T01:22:33;96094;;;16.72;66.09
2711;BME280;20721;47.402;8.550;2022-10-16T01:24:38;96095;;;16.68;66.15
2711;BME280;20721;47.402;8.550;2022-10-16T01:27:30;96100;;;16.72;65.99
2711;BME280;20721;47.402;8.550;2022-10-16T01:28:32;96098;;;16.52;66.62
2711;BME280;20721;47.402;8.550;2022-10-16T01:29:33;96103;;;16.50;66.85
2711;BME280;20721;47.402;8.550;2022-10-16T01:30:30;96100;;;16.53;66.53
2711;BME280;20721;47.402;8.550;2022-10-16T01:31:31;96100;;;16.58;66.41
2711;BME280;20721;47.402;8.550;2022-10-16T01:32:46;96100;;;16.59;66.49
2711;BME280;20721;47.402;8.550;2022-10-16T01:33:32;96104;;;16.61;66.44
2711;BME280;20721;47.402;8.550;2022-10-16T01:34:33;96102;;;16.63;66.40
2711;BME280;20721;47.402;8.550;2022-10-16T01:35:32;96101;;;16.65;66.33
2711;BME280;20721;47.402;8.550;2022-10-16T01:37:32;96110;;;16.66;66.32
2711;BME280;20721;47.402;8.550;2022-10-16T01:38:31;96106;;;16.67;66.35
2711;BME280;20721;47.402;8.550;2022-10-16T01:39:30;96108;;;16.68;66.19
2711;BME280;20721;47.402;8.550;2022-10-16T01:41:31;96110;;;16.67;66.10
2711;BME280;20721;47.402;8.550;2022-10-16T01:45:31;96106;;;16.68;66.24
2711;BME280;20721;47.402;8.550;2022-10-16T01:46:30;96107;;;16.69;66.08
2711;BME280;20721;47.402;8.550;2022-10-16T01:48:30;96106;;;16.70;66.06
2711;BME280;20721;47.402;8.550;2022-10-16T01:49:31;96103;;;16.71;66.05
2711;BME280;20721;47.402;8.550;2022-10-16T01:50:30;96105;;;16.73;66.04
2711;BME280;20721;47.402;8.550;2022-10-16T01:51:30;96101;;;16.74;66.00
2711;BME280;20721;47.402;8.550;2022-10-16T01:54:30;96104;;;16.76;65.98
2711;BME280;20721;47.402;8.550;2022-10-16T01:58:35;96114;;;16.74;65.86
2711;BME280;20721;47.402;8.550;2022-10-16T01:59:30;96117;;;16.72;65.87
2711;BME280;20721;47.402;8.550;2022-10-16T02:00:30;96119;;;16.70;65.77
2711;BME280;20721;47.402;8.550;2022-10-16T02:01:30;96118;;;16.68;65.75
2711;BME280;20721;47.402;8.550;2022-10-16T02:02:30;96109;;;16.67;65.73
2711;BME280;20721;47.402;8.550;2022-10-16T02:03:30;96114;;;16.66;65.73
2711;BME280;20721;47.402;8.550;2022-10-16T02:04:31;96118;;;16.64;65.72
2711;BME280;20721;47.402;8.550;2022-10-16T02:05:31;96117;;;16.61;65.59
2711;BME280;20721;47.402;8.550;2022-10-16T02:06:30;96118;;;16.57;65.70
2711;BME280;20721;47.402;8.550;2022-10-16T02:07:30;96120;;;16.56;65.72
2711;BME280;20721;47.402;8.550;2022-10-16T02:08:30;96119;;;16.54;65.75
2711;BME280;20721;47.402;8.550;2022-10-16T02:09:30;96116;;;16.52;65.72
2711;BME280;20721;47.402;8.550;2022-10-16T02:10:31;96125;;;16.51;65.79
2711;BME280;20721;47.402;8.550;2022-10-16T02:11:30;96126;;;16.49;65.76
2711;BME280;20721;47.402;8.550;2022-10-16T02:12:31;96123;;;16.48;65.80
2711;BME280;20721;47.402;8.550;2022-10-16T02:14:30;96127;;;16.50;65.73
2711;BME280;20721;47.402;8.550;2022-10-16T02:17:30;96124;;;16.37;65.88
2711;BME280;20721;47.402;8.550;2022-10-16T02:18:30;96117;;;16.30;66.25
2711;BME280;20721;47.402;8.550;2022-10-16T02:19:30;96117;;;16.29;66.33
2711;BME280;20721;47.402;8.550;2022-10-16T02:21:33;96125;;;16.31;66.33
2711;BME280;20721;47.402;8.550;2022-10-16T02:22:32;96122;;;16.32;66.28
2711;BME280;20721;47.402;8.550;2022-10-16T02:24:33;96123;;;16.36;66.16
2711;BME280;20721;47.402;8.550;2022-10-16T02:25:30;96125;;;16.37;66.12
2711;BME280;20721;47.402;8.550;2022-10-16T02:26:32;96124;;;16.38;66.08
2711;BME280;20721;47.402;8.550;2022-10-16T02:30:32;96114;;;16.32;65.98
2711;BME280;20721;47.402;8.550;2022-10-16T02:31:31;96115;;;16.16;66.51
2711;BME280;20721;47.402;8.550;2022-10-16T02:32:30;96116;;;16.10;66.83
2711;BME280;20721;47.402;8.550;2022-10-16T02:33:30;96112;;;16.11;66.87
2711;BME280;20721;47.402;8.550;2022-10-16T02:34:30;96112;;;16.13;66.78
2711;BME280;20721;47.402;8.550;2022-10-16T02:35:30;96108;;;16.17;66.65
2711;BME280;20721;47.402;8.550;2022-10-16T02:36:30;96110;;;16.19;66.52
2711;BME280;20721;47.402;8.550;2022-10-16T02:37:30;96112;;;16.21;66.45
2711;BME280;20721;47.402;8.550;2022-10-16T02:39:30;96101;;;16.22;66.37
2711;BME280;20721;47.402;8.550;2022-10-16T02:40:30;96100;;;16.21;66.39
2711;BME280;20721;47.402;8.550;2022-10-16T02:41:30;96100;;;16.18;66.46
2711;BME280;20721;47.402;8.550;2022-10-16T02:42:33;96100;;;16.16;66.55
2711;BME280;20721;47.402;8.550;2022-10-16T02:43:30;96100;;;16.15;66.51
2711;BME280;20721;47.402;8.550;2022-10-16T02:44:30;96095;;;16.14;66.55
2711;BME280;20721;47.402;8.550;2022-10-16T02:56:30;96120;;;16.13;66.48
2711;BME280;20721;47.402;8.550;2022-10-16T02:57:31;96117;;;16.06;66.78
2711;BME280;20721;47.402;8.550;2022-10-16T02:58:30;96115;;;15.92;67.26
2711;BME280;20721;47.402;8.550;2022-10-16T02:59:30;96115;;;15.90;67.51
2711;BME280;20721;47.402;8.550;2022-10-16T03:00:30;96117;;;15.91;67.38
2711;BME280;20721;47.402;8.550;2022-10-16T03:01:30;96114;;;15.95;67.34
2711;BME280;20721;47.402;8.550;2022-10-16T03:02:30;96115;;;15.99;67.28
2711;BME280;20721;47.402;8.550;2022-10-16T03:03:30;96117;;;16.03;67.18
2711;BME280;20721;47.402;8.550;2022-10-16T03:04:30;96119;;;16.06;67.05
2711;BME280;20721;47.402;8.550;2022-10-16T03:05:30;96117;;;16.08;66.98
2711;BME280;20721;47.402;8.550;2022-10-16T03:06:30;96120;;;16.11;66.94
2711;BME280;20721;47.402;8.550;2022-10-16T03:08:30;96116;;;16.10;67.02
2711;BME280;20721;47.402;8.550;2022-10-16T03:10:30;96116;;;16.00;67.14
2711;BME280;20721;47.402;8.550;2022-10-16T03:11:30;96111;;;15.93;67.61
2711;BME280;20721;47.402;8.550;2022-10-16T03:12:30;96118;;;15.84;67.79
2711;BME280;20721;47.402;8.550;2022-10-16T03:13:30;96120;;;15.83;68.05
2711;BME280;20721;47.402;8.550;2022-10-16T03:14:30;96119;;;15.88;67.94
2711;BME280;20721;47.402;8.550;2022-10-16T03:15:30;96113;;;15.93;67.75
2711;BME280;20721;47.402;8.550;2022-10-16T03:16:30;96119;;;16.00;67.55
2711;BME280;20721;47.402;8.550;2022-10-16T03:17:31;96124;;;16.04;67.43
2711;BME280;20721;47.402;8.550;2022-10-16T03:18:30;96125;;;16.08;67.32
2711;BME280;20721;47.402;8.550;2022-10-16T03:19:30;96132;;;16.11;67.23
2711;BME280;20721;47.402;8.550;2022-10-16T03:20:30;96131;;;16.13;67.15
2711;BME280;20721;47.402;8.550;2022-10-16T03:21:30;96136;;;16.16;67.11
2711;BME280;20721;47.402;8.550;2022-10-16T03:22:30;96139;;;16.19;66.96
2711;BME280;20721;47.402;8.550;2022-10-16T03:23:31;96138;;;16.22;66.80
2711;BME280;20721;47.402;8.550;2022-10-16T03:25:30;96139;;;16.23;66.66
2711;BME280;20721;47.402;8.550;2022-10-16T03:28:30;96132;;;16.24;66.35
2711;BME280;20721;47.402;8.550;2022-10-16T03:31:30;96132;;;16.26;66.36
2711;BME280;20721;47.402;8.550;2022-10-16T03:33:30;96130;;;16.24;66.27
2711;BME280;20721;47.402;8.550;2022-10-16T03:34:30;96133;;;16.21;66.30
2711;BME280;20721;47.402;8.550;2022-10-16T03:35:31;96137;;;16.18;66.29
2711;BME280;20721;47.402;8.550;2022-10-16T03:36:30;96139;;;16.15;66.36
2711;BME280;20721;47.402;8.550;2022-10-16T03:37:30;96138;;;16.13;66.39
2711;BME280;20721;47.402;8.550;2022-10-16T03:38:30;96139;;;16.12;66.33
2711;BME280;20721;47.402;8.550;2022-10-16T03:39:30;96140;;;16.11;66.41
2711;BME280;20721;47.402;8.550;2022-10-16T03:40:32;96136;;;16.10;66.39
2711;BME280;20721;47.402;8.550;2022-10-16T03:41:30;96142;;;16.11;66.39
2711;BME280;20721;47.402;8.550;2022-10-16T03:45:30;96142;;;16.09;66.44
2711;BME280;20721;47.402;8.550;2022-10-16T03:46:30;96142;;;16.06;66.45
2711;BME280;20721;47.402;8.550;2022-10-16T03:47:32;96147;;;16.04;66.52
2711;BME280;20721;47.402;8.550;2022-10-16T03:48:30;96145;;;16.02;66.43
2711;BME280;20721;47.402;8.550;2022-10-16T03:49:30;96145;;;16.00;66.46
2711;BME280;20721;47.402;8.550;2022-10-16T03:50:30;96148;;;15.99;66.52
2711;BME280;20721;47.402;8.550;2022-10-16T03:51:30;96143;;;15.98;66.52
2711;BME280;20721;47.402;8.550;2022-10-16T03:55:30;96145;;;15.96;66.75
2711;BME280;20721;47.402;8.550;2022-10-16T03:56:30;96143;;;15.94;66.76
2711;BME280;20721;47.402;8.550;2022-10-16T03:57:30;96138;;;15.91;66.89
2711;BME280;20721;47.402;8.550;2022-10-16T03:58:30;96136;;;15.82;67.07
2711;BME280;20721;47.402;8.550;2022-10-16T03:59:30;96130;;;15.66;67.70
2711;BME280;20721;47.402;8.550;2022-10-16T04:00:30;96132;;;15.64;67.79
2711;BME280;20721;47.402;8.550;2022-10-16T04:01:30;96137;;;15.65;67.84
2711;BME280;20721;47.402;8.550;2022-10-16T04:02:30;96135;;;15.68;67.77
2711;BME280;20721;47.402;8.550;2022-10-16T04:03:31;96136;;;15.72;67.65
2711;BME280;20721;47.402;8.550;2022-10-16T04:04:30;96132;;;15.76;67.52
2711;BME280;20721;47.402;8.550;2022-10-16T04:05:30;96137;;;15.80;67.40
2711;BME280;20721;47.402;8.550;2022-10-16T04:06:30;96143;;;15.82;67.29
2711;BME280;20721;47.402;8.550;2022-10-16T04:07:50;96143;;;15.82;67.29
2711;BME280;20721;47.402;8.550;2022-10-16T04:08:01;96146;;;15.83;67.17
2711;BME280;20721;47.402;8.550;2022-10-16T04:08:30;96142;;;15.85;67.09
2711;BME280;20721;47.402;8.550;2022-10-16T04:09:30;96141;;;15.86;67.02
2711;BME280;20721;47.402;8.550;2022-10-16T04:11:30;96144;;;15.87;66.98
2711;BME280;20721;47.402;8.550;2022-10-16T04:12:30;96146;;;15.88;66.96
2711;BME280;20721;47.402;8.550;2022-10-16T04:13:30;96147;;;15.90;66.86
2711;BME280;20721;47.402;8.550;2022-10-16T04:17:30;96146;;;15.89;66.92
2711;BME280;20721;47.402;8.550;2022-10-16T04:20:30;96149;;;15.91;66.93
2711;BME280;20721;47.402;8.550;2022-10-16T04:21:30;96153;;;15.92;66.85
2711;BME280;20721;47.402;8.550;2022-10-16T04:23:30;96151;;;15.91;66.84
2711;BME280;20721;47.402;8.550;2022-10-16T04:25:30;96152;;;15.93;66.86
2711;BME280;20721;47.402;8.550;2022-10-16T04:26:30;96155;;;15.94;66.85
2711;BME280;20721;47.402;8.550;2022-10-16T04:27:31;96155;;;15.95;66.78
2711;BME280;20721;47.402;8.550;2022-10-16T04:28:30;96155;;;15.94;66.77
2711;BME280;20721;47.402;8.550;2022-10-16T04:29:30;96158;;;15.93;66.85
2711;BME280;20721;47.402;8.550;2022-10-16T04:31:30;96157;;;15.94;66.83
2711;BME280;20721;47.402;8.550;2022-10-16T04:32:30;96158;;;15.95;66.86
2711;BME280;20721;47.402;8.550;2022-10-16T04:33:30;96160;;;15.97;66.81
2711;BME280;20721;47.402;8.550;2022-10-16T04:34:30;96159;;;15.98;66.77
2711;BME280;20721;47.402;8.550;2022-10-16T04:36:30;96157;;;15.95;66.78
2711;BME280;20721;47.402;8.550;2022-10-16T04:37:30;96162;;;15.93;66.88
2711;BME280;20721;47.402;8.550;2022-10-16T04:38:30;96166;;;15.92;66.96
2711;BME280;20721;47.402;8.550;2022-10-16T04:40:33;96172;;;15.91;67.05
2711;BME280;20721;47.402;8.550;2022-10-16T04:41:30;96170;;;15.92;67.05
2711;BME280;20721;47.402;8.550;2022-10-16T04:42:30;96173;;;15.95;67.06
2711;BME280;20721;47.402;8.550;2022-10-16T04:43:30;96174;;;15.96;66.96
2711;BME280;20721;47.402;8.550;2022-10-16T04:44:30;96174;;;15.97;66.97
2711;BME280;20721;47.402;8.550;2022-10-16T04:45:30;96174;;;15.98;67.00
2711;BME280;20721;47.402;8.550;2022-10-16T04:46:30;96171;;;16.01;66.91
2711;BME280;20721;47.402;8.550;2022-10-16T04:47:30;96171;;;16.03;66.84
2711;BME280;20721;47.402;8.550;2022-10-16T04:48:30;96171;;;16.01;66.79
2711;BME280;20721;47.402;8.550;2022-10-16T04:49:30;96174;;;16.00;66.83
2711;BME280;20721;47.402;8.550;2022-10-16T04:51:30;96171;;;15.99;66.82
2711;BME280;20721;47.402;8.550;2022-10-16T04:52:31;96172;;;16.00;66.75
2711;BME280;20721;47.402;8.550;2022-10-16T04:55:30;96176;;;15.99;66.66
2711;BME280;20721;47.402;8.550;2022-10-16T04:57:30;96180;;;15.98;66.63
2711;BME280;20721;47.402;8.550;2022-10-16T04:58:30;96174;;;15.97;66.64
2711;BME280;20721;47.402;8.550;2022-10-16T05:00:31;96179;;;15.96;66.65
2711;BME280;20721;47.402;8.550;2022-10-16T05:01:30;96177;;;15.95;66.65
2711;BME280;20721;47.402;8.550;2022-10-16T05:02:30;96174;;;15.93;66.63
2711;BME280;20721;47.402;8.550;2022-10-16T05:03:30;96179;;;15.91;66.65
2711;BME280;20721;47.402;8.550;2022-10-16T05:06:30;96183;;;15.92;66.71
2711;BME280;20721;47.402;8.550;2022-10-16T05:07:30;96186;;;15.91;66.68
2711;BME280;20721;47.402;8.550;2022-10-16T05:08:30;96183;;;15.88;66.66
2711;BME280;20721;47.402;8.550;2022-10-16T05:09:30;96184;;;15.87;66.87
2711;BME280;20721;47.402;8.550;2022-10-16T05:10:30;96186;;;15.86;66.86
2711;BME280;20721;47.402;8.550;2022-10-16T05:12:30;96182;;;15.85;66.87
2711;BME280;20721;47.402;8.550;2022-10-16T05:13:30;96180;;;15.82;67.02
2711;BME280;20721;47.402;8.550;2022-10-16T05:14:30;96182;;;15.81;67.00
2711;BME280;20721;47.402;8.550;2022-10-16T05:15:30;96179;;;15.82;67.06
2711;BME280;20721;47.402;8.550;2022-10-16T05:16:30;96179;;;15.83;67.07
2711;BME280;20721;47.402;8.550;2022-10-16T05:18:30;96176;;;15.82;66.92
2711;BME280;20721;47.402;8.550;2022-10-16T05:19:30;96176;;;15.79;67.16
2711;BME280;20721;47.402;8.550;2022-10-16T05:20:30;96177;;;15.78;67.21
2711;BME280;20721;47.402;8.550;2022-10-16T05:21:30;96179;;;15.80;67.16
2711;BME280;20721;47.402;8.550;2022-10-16T05:22:30;96179;;;15.82;67.07
2711;BME280;20721;47.402;8.550;2022-10-16T05:24:30;96178;;;15.80;67.12
2711;BME280;20721;47.402;8.550;2022-10-16T05:25:30;96181;;;15.74;67.12
2711;BME280;20721;47.402;8.550;2022-10-16T05:26:30;96181;;;15.73;67.22
2711;BME280;20721;47.402;8.550;2022-10-16T05:28:30;96177;;;15.75;67.30
2711;BME280;20721;47.402;8.550;2022-10-16T05:29:30;96177;;;15.77;67.24
2711;BME280;20721;47.402;8.550;2022-10-16T05:32:30;96178;;;15.79;67.17
2711;BME280;20721;47.402;8.550;2022-10-16T05:35:30;96182;;;15.80;67.25
2711;BME280;20721;47.402;8.550;2022-10-16T05:36:30;96176;;;15.78;67.35
2711;BME280;20721;47.402;8.550;2022-10-16T05:37:30;96175;;;15.79;67.39
2711;BME280;20721;47.402;8.550;2022-10-16T05:38:30;96182;;;15.75;67.34
2711;BME280;20721;47.402;8.550;2022-10-16T05:39:30;96182;;;15.74;67.52
2711;BME280;20721;47.402;8.550;2022-10-16T05:40:30;96182;;;15.75;67.51
2711;BME280;20721;47.402;8.550;2022-10-16T05:41:31;96186;;;15.77;67.60
2711;BME280;20721;47.402;8.550;2022-10-16T05:42:30;96179;;;15.80;67.47
2711;BME280;20721;47.402;8.550;2022-10-16T05:43:30;96180;;;15.82;67.39
2711;BME280;20721;47.402;8.550;2022-10-16T05:44:30;96182;;;15.85;67.29
2711;BME280;20721;47.402;8.550;2022-10-16T05:45:30;96183;;;15.88;67.17
2711;BME280;20721;47.402;8.550;2022-10-16T05:46:30;96181;;;15.90;67.11
2711;BME280;20721;47.402;8.550;2022-10-16T05:47:30;96185;;;15.91;67.08
2711;BME280;20721;47.402;8.550;2022-10-16T05:49:30;96185;;;15.87;67.24
2711;BME280;20721;47.402;8.550;2022-10-16T05:51:30;96185;;;15.76;67.54
2711;BME280;20721;47.402;8.550;2022-10-16T05:52:30;96183;;;15.71;67.92
2711;BME280;20721;47.402;8.550;2022-10-16T05:53:31;96188;;;15.74;67.92
2711;BME280;20721;47.402;8.550;2022-10-16T05:54:32;96189;;;15.78;67.86
2711;BME280;20721;47.402;8.550;2022-10-16T05:55:30;96194;;;15.84;67.65
2711;BME280;20721;47.402;8.550;2022-10-16T05:56:30;96193;;;15.88;67.53
2711;BME280;20721;47.402;8.550;2022-10-16T05:57:31;96194;;;15.92;67.39
2711;BME280;20721;47.402;8.550;2022-10-16T05:58:32;96192;;;15.94;67.34
2711;BME280;20721;47.402;8.550;2022-10-16T05:59:30;96194;;;15.96;67.25
2711;BME280;20721;47.402;8.550;2022-10-16T06:00:30;96197;;;15.97;67.06
2711;BME280;20721;47.402;8.550;2022-10-16T06:01:30;96199;;;15.99;66.95
2711;BME280;20721;47.402;8.550;2022-10-16T06:02:30;96198;;;16.00;66.79
2711;BME280;20721;47.402;8.550;2022-10-16T06:03:30;96196;;;15.99;66.80
2711;BME280;20721;47.402;8.550;2022-10-16T06:05:30;96196;;;16.00;66.77
2711;BME280;20721;47.402;8.550;2022-10-16T06:06:30;96197;;;15.99;66.71
2711;BME280;20721;47.402;8.550;2022-10-16T06:12:30;96195;;;16.01;66.92
2711;BME280;20721;47.402;8.550;2022-10-16T06:13:30;96191;;;16.03;66.87
2711;BME280;20721;47.402;8.550;2022-10-16T06:14:30;96190;;;16.07;66.75
2711;BME280;20721;47.402;8.550;2022-10-16T06:15:30;96192;;;16.09;66.77
2711;BME280;20721;47.402;8.550;2022-10-16T06:16:30;96194;;;16.10;66.66
2711;BME280;20721;47.402;8.550;2022-10-16T06:18:30;96192;;;16.13;66.71
2711;BME280;20721;47.402;8.550;2022-10-16T06:19:31;96197;;;16.14;66.69
2711;BME280;20721;47.402;8.550;2022-10-16T06:20:30;96195;;;16.16;66.64
2711;BME280;20721;47.402;8.550;2022-10-16T06:21:30;96200;;;16.19;66.58
2711;BME280;20721;47.402;8.550;2022-10-16T06:22:30;96200;;;16.20;66.52
2711;BME280;20721;47.402;8.550;2022-10-16T06:23:30;96196;;;16.23;66.47
2711;BME280;20721;47.402;8.550;2022-10-16T06:24:30;96202;;;16.27;66.42
2711;BME280;20721;47.402;8.550;2022-10-16T06:25:31;96204;;;16.28;66.38
2711;BME280;20721;47.402;8.550;2022-10-16T06:26:30;96201;;;16.31;66.32
2711;BME280;20721;47.402;8.550;2022-10-16T06:27:30;96202;;;16.33;66.22
2711;BME280;20721;47.402;8.550;2022-10-16T06:28:30;96201;;;16.34;66.15
2711;BME280;20721;47.402;8.550;2022-10-16T06:29:30;96208;;;16.35;66.17
2711;BME280;20721;47.402;8.550;2022-10-16T06:30:30;96213;;;16.36;66.12
2711;BME280;20721;47.402;8.550;2022-10-16T06:31:33;96210;;;16.37;66.11
2711;BME280;20721;47.402;8.550;2022-10-16T06:32:30;96212;;;16.39;66.11
2711;BME280;20721;47.402;8.550;2022-10-16T06:33:30;96217;;;16.40;66.07
2711;BME280;20721;47.402;8.550;2022-10-16T06:34:30;96220;;;16.41;66.06
2711;BME280;20721;47.402;8.550;2022-10-16T06:35:31;96223;;;16.44;65.96
2711;BME280;20721;47.402;8.550;2022-10-16T06:36:30;96227;;;16.46;65.91
2711;BME280;20721;47.402;8.550;2022-10-16T06:37:30;96232;;;16.50;65.81
2711;BME280;20721;47.402;8.550;2022-10-16T06:38:30;96232;;;16.51;65.80
2711;BME280;20721;47.402;8.550;2022-10-16T06:39:30;96232;;;16.54;65.73
2711;BME280;20721;47.402;8.550;2022-10-16T06:40:30;96232;;;16.57;65.63
2711;BME280;20721;47.402;8.550;2022-10-16T06:42:30;96234;;;16.46;65.58
2711;BME280;20721;47.402;8.550;2022-10-16T06:43:35;96235;;;16.45;65.78
2711;BME280;20721;47.402;8.550;2022-10-16T06:44:30;96238;;;16.47;65.79
2711;BME280;20721;47.402;8.550;2022-10-16T06:45:30;96239;;;16.54;65.73
2711;BME280;20721;47.402;8.550;2022-10-16T06:46:30;96240;;;16.61;65.62
2711;BME280;20721;47.402;8.550;2022-10-16T06:47:30;96244;;;16.67;65.52
2711;BME280;20721;47.402;8.550;2022-10-16T06:48:30;96244;;;16.73;65.39
2711;BME280;20721;47.402;8.550;2022-10-16T06:49:30;96244;;;16.81;65.36
2711;BME280;20721;47.402;8.550;2022-10-16T06:50:30;96246;;;16.88;65.20
2711;BME280;20721;47.402;8.550;2022-10-16T06:51:32;96250;;;16.96;65.08
2711;BME280;20721;47.402;8.550;2022-10-16T06:52:30;96250;;;17.04;64.92
2711;BME280;20721;47.402;8.550;2022-10-16T06:53:41;96254;;;17.12;64.75
2711;BME280;20721;47.402;8.550;2022-10-16T06:54:39;96259;;;17.21;64.52
2711;BME280;20721;47.402;8.550;2022-10-16T06:55:30;96259;;;17.27;64.40
2711;BME280;20721;47.402;8.550;2022-10-16T06:56:31;96261;;;17.33;64.27
2711;BME280;20721;47.402;8.550;2022-10-16T06:57:30;96263;;;17.39;64.07
2711;BME280;20721;47.402;8.550;2022-10-16T06:58:30;96264;;;17.47;63.93
2711;BME280;20721;47.402;8.550;2022-10-16T06:59:30;96265;;;17.54;63.74
2711;BME280;20721;47.402;8.550;2022-10-16T07:00:30;96272;;;17.62;63.62
2711;BME280;20721;47.402;8.550;2022-10-16T07:01:31;96274;;;17.67;63.44
2711;BME280;20721;47.402;8.550;2022-10-16T07:02:30;96278;;;17.73;63.25
2711;BME280;20721;47.402;8.550;2022-10-16T07:03:30;96279;;;17.79;63.07
2711;BME280;20721;47.402;8.550;2022-10-16T07:04:30;96276;;;17.84;62.92
2711;BME280;20721;47.402;8.550;2022-10-16T07:05:30;96276;;;17.88;62.78
2711;BME280;20721;47.402;8.550;2022-10-16T07:06:31;96276;;;17.93;62.58
2711;BME280;20721;47.402;8.550;2022-10-16T07:07:30;96271;;;17.96;62.36
2711;BME280;20721;47.402;8.550;2022-10-16T07:08:33;96272;;;18.01;62.22
2711;BME280;20721;47.402;8.550;2022-10-16T07:09:30;96276;;;18.04;62.18
2711;BME280;20721;47.402;8.550;2022-10-16T07:10:31;96278;;;18.09;62.12
2711;BME280;20721;47.402;8.550;2022-10-16T07:11:30;96278;;;18.15;62.06
2711;BME280;20721;47.402;8.550;2022-10-16T07:12:30;96279;;;18.21;61.93
2711;BME280;20721;47.402;8.550;2022-10-16T07:13:32;96283;;;18.27;61.83
2711;BME280;20721;47.402;8.550;2022-10-16T07:14:30;96285;;;18.33;61.80
2711;BME280;20721;47.402;8.550;2022-10-16T07:15:30;96284;;;18.38;61.64
2711;BME280;20721;47.402;8.550;2022-10-16T07:16:32;96289;;;18.44;61.55
2711;BME280;20721;47.402;8.550;2022-10-16T07:17:30;96290;;;18.48;61.39
2711;BME280;20721;47.402;8.550;2022-10-16T07:18:32;96290;;;18.52;61.26
2711;BME280;20721;47.402;8.550;2022-10-16T07:19:34;96291;;;18.59;61.12
2711;BME280;20721;47.402;8.550;2022-10-16T07:20:30;96291;;;18.63;60.81